Time;durP1;ratioP1;P1;durP2;ratioP2;P2;SDS_P1;SDS_P2;PMS_P1;PMS_P2;Temp;Humidity;BMP_temperature;BMP_pressure;BME280_temperature;BME280_humidity;BME280_pressure;Samples;Min_cycle;Max_cycle;Signal;HPM_P1;HPM_P2
2024/01/05 09:58:05;;;;;;;3.17;2.10;;;;;;;8.08;100.00;97600.84;5121682;27;21395;-88
2024/01/05 10:00:54;;;;;;;4.10;1.50;;;;;;;8.71;100.00;97592.66;5033985;28;40743;-90
2024/01/05 10:03:45;;;;;;;1.97;1.20;;;;;;;9.59;100.00;97620.19;5054095;28;42227;-88
2024/01/05 10:06:33;;;;;;;3.00;1.43;;;;;;;9.99;100.00;97632.91;5054470;28;42365;-89
2024/01/05 10:09:20;;;;;;;3.80;1.80;;;;;;;10.23;100.00;97609.81;5054345;28;41599;-90
2024/01/05 10:12:12;;;;;;;2.93;1.40;;;;;;;10.75;100.00;97600.25;5054163;28;39319;-90
2024/01/05 10:15:06;;;;;;;4.13;1.30;;;;;;;10.93;98.83;97566.06;5054005;28;41359;-90
2024/01/05 10:17:53;;;;;;;4.27;1.53;;;;;;;11.35;93.92;97612.78;5053859;28;41805;-91
2024/01/05 10:20:41;;;;;;;1.80;1.27;;;;;;;11.39;92.53;97616.84;5059229;28;41768;-90
2024/01/05 10:23:28;;;;;;;2.83;1.50;;;;;;;11.50;91.28;97629.16;5063341;28;39210;-90
2024/01/05 10:26:17;;;;;;;2.53;1.30;;;;;;;11.56;89.78;97628.66;5061692;28;40907;-90
2024/01/05 10:29:13;;;;;;;2.10;1.10;;;;;;;11.64;86.87;97636.78;5062074;28;42661;-89
2024/01/05 10:32:13;;;;;;;2.67;1.03;;;;;;;11.81;85.88;97627.41;5040969;28;41737;-87
2024/01/05 10:35:03;;;;;;;3.40;1.17;;;;;;;12.03;86.50;97626.34;5039653;28;39806;-88
2024/01/05 10:38:08;;;;;;;3.73;1.20;;;;;;;12.11;84.93;97592.88;5067214;28;41900;-89
2024/01/05 10:41:06;;;;;;;2.40;1.40;;;;;;;12.73;80.73;97647.47;5053339;28;42424;-88
2024/01/05 10:43:54;;;;;;;3.53;1.40;;;;;;;13.21;78.54;97652.81;5053823;28;41044;-88
2024/01/05 10:46:43;;;;;;;3.23;1.10;;;;;;;13.27;76.26;97641.59;5053145;28;39665;-88
2024/01/05 10:49:33;;;;;;;2.53;1.30;;;;;;;13.04;73.39;97640.19;5053184;28;42271;-90
2024/01/05 10:52:22;;;;;;;3.20;1.17;;;;;;;12.96;72.96;97653.34;5053086;28;42405;-91
2024/01/05 10:55:11;;;;;;;1.17;0.90;;;;;;;13.04;73.76;97634.88;5053467;28;41692;-91
2024/01/05 10:57:58;;;;;;;2.80;1.00;;;;;;;13.40;72.16;97657.25;5053568;28;39378;-92
2024/01/05 11:00:47;;;;;;;1.60;1.00;;;;;;;13.57;72.98;97631.75;5052978;28;41187;-90
2024/01/05 11:03:37;;;;;;;1.97;1.07;;;;;;;13.61;72.62;97609.16;5053358;28;42423;-88
2024/01/05 11:06:27;;;;;;;3.43;1.23;;;;;;;13.74;68.54;97649.59;5052979;28;41623;-90
2024/01/05 11:09:28;;;;;;;1.67;0.77;;;;;;;13.73;68.77;97645.25;5040590;28;39748;-89
2024/01/05 11:12:27;;;;;;;2.43;1.30;;;;;;;13.71;68.66;97639.25;5039801;28;42194;-89
2024/01/05 11:15:33;;;;;;;4.03;1.37;;;;;;;13.68;68.32;97623.59;5039587;28;42492;-91
2024/01/05 11:18:42;;;;;;;2.30;0.83;;;;;;;13.72;66.24;97640.94;5039820;28;41208;-90
2024/01/05 11:21:42;;;;;;;2.60;1.43;;;;;;;13.80;67.83;97643.72;5039611;28;39794;-90
2024/01/05 11:24:32;;;;;;;2.60;0.93;;;;;;;13.77;66.51;97627.19;5039886;28;41273;-90
2024/01/05 11:27:31;;;;;;;2.70;1.20;;;;;;;13.80;68.67;97613.59;5039573;28;41817;-89
2024/01/05 11:30:39;;;;;;;1.90;1.10;;;;;;;13.85;68.88;97609.50;5039836;28;41291;-90
2024/01/05 11:33:47;;;;;;;2.40;1.13;;;;;;;14.01;65.59;97609.72;5056462;28;38842;-89
2024/01/05 11:36:59;;;;;;;2.47;1.00;;;;;;;14.65;64.08;97627.44;5058113;28;40974;-91
2024/01/05 11:39:48;;;;;;;2.47;1.00;;;;;;;14.64;62.96;97606.28;5039279;28;42393;-91
2024/01/05 11:42:35;;;;;;;2.00;0.83;;;;;;;14.59;63.00;97606.72;5039298;28;42569;-90
2024/01/05 11:45:50;;;;;;;1.33;1.00;;;;;;;14.73;65.47;97606.19;5039467;28;40082;-89
2024/01/05 11:48:52;;;;;;;2.10;1.20;;;;;;;14.58;64.70;97591.75;5039263;28;41294;-88
2024/01/05 11:51:40;;;;;;;1.73;0.90;;;;;;;14.38;62.65;97598.16;5039026;28;42431;-89
2024/01/05 11:54:30;;;;;;;1.53;1.00;;;;;;;14.21;62.72;97585.66;5039616;28;41573;-89
2024/01/05 11:57:18;;;;;;;2.23;1.00;;;;;;;14.19;63.31;97582.31;5038318;28;39332;-91
2024/01/05 12:00:07;;;;;;;2.67;1.10;;;;;;;14.11;63.13;97576.88;5039036;28;41230;-92
2024/01/05 12:03:01;;;;;;;4.80;1.10;;;;;;;13.98;63.32;97567.41;5038910;28;42426;-89
2024/01/05 12:05:50;;;;;;;1.43;0.73;;;;;;;14.02;62.58;97590.09;5038654;28;42979;-88
2024/01/05 12:08:38;;;;;;;5.13;1.00;;;;;;;13.97;62.74;97575.56;5038973;28;40682;-92
2024/01/05 12:11:27;;;;;;;3.90;0.90;;;;;;;14.11;62.54;97566.22;5038820;28;42814;-90
2024/01/05 12:14:26;;;;;;;1.80;0.90;;;;;;;14.22;62.49;97587.31;5052492;28;42994;-89
2024/01/05 12:17:14;;;;;;;1.90;0.87;;;;;;;14.31;62.56;97570.47;5038875;28;41579;-89
2024/01/05 12:20:10;;;;;;;2.63;0.93;;;;;;;14.47;62.26;97570.63;5037532;28;40321;-89
2024/01/05 12:22:58;;;;;;;1.00;0.70;;;;;;;14.68;62.19;97581.84;5038681;28;41055;-86
2024/01/05 12:25:45;;;;;;;2.87;1.10;;;;;;;14.76;62.85;97556.25;5038793;28;43002;-89
2024/01/05 12:28:35;;;;;;;1.57;0.90;;;;;;;14.89;63.22;97556.69;5038285;28;41738;-90
2024/01/05 12:31:23;;;;;;;1.00;0.90;;;;;;;14.94;62.20;97571.25;5038495;28;39278;-91
2024/01/05 12:34:13;;;;;;;1.63;0.90;;;;;;;14.79;60.84;97563.94;5038035;28;43196;-89
2024/01/05 12:37:07;;;;;;;1.40;1.10;;;;;;;14.74;62.06;97559.06;5038215;28;42478;-87
2024/01/05 12:39:54;;;;;;;2.30;1.30;;;;;;;14.69;61.60;97572.88;5037880;28;43299;-85
2024/01/05 12:42:42;;;;;;;3.53;1.30;;;;;;;14.57;61.61;97558.09;5038376;28;39225;-89
2024/01/05 12:45:31;;;;;;;2.10;1.00;;;;;;;14.62;61.51;97554.97;5038227;28;41365;-90
2024/01/05 12:48:19;;;;;;;2.33;1.37;;;;;;;14.53;61.44;97554.06;5038188;28;42975;-90
2024/01/05 12:51:08;;;;;;;2.03;1.00;;;;;;;14.50;61.89;97557.00;5037990;28;42787;-90
2024/01/05 12:53:59;;;;;;;2.00;1.00;;;;;;;14.47;61.74;97557.31;5038484;28;39280;-87
2024/01/05 12:56:48;;;;;;;3.07;1.30;;;;;;;14.46;61.39;97574.31;5037889;28;41556;-88
2024/01/05 12:59:36;;;;;;;3.37;1.13;;;;;;;14.45;60.45;97596.59;5037850;28;42082;-90
2024/01/05 13:02:25;;;;;;;2.03;0.87;;;;;;;14.32;60.75;97596.09;5037974;28;41822;-88
2024/01/05 13:05:25;;;;;;;3.23;1.17;;;;;;;14.11;61.76;97582.19;5038128;28;40221;-88
2024/01/05 13:08:13;;;;;;;1.10;0.80;;;;;;;14.03;61.38;97591.78;5037749;28;40835;-90
2024/01/05 13:11:00;;;;;;;1.07;0.93;;;;;;;13.93;61.98;97590.16;5037917;28;43157;-87
2024/01/05 13:13:48;;;;;;;1.77;0.90;;;;;;;13.76;62.88;97580.28;5051812;28;42238;-87
2024/01/05 13:16:36;;;;;;;2.13;1.10;;;;;;;13.69;63.00;97579.19;5051130;28;39705;-89
2024/01/05 13:19:25;;;;;;;0.83;0.80;;;;;;;13.68;63.55;97580.19;5037777;28;41574;-91
2024/01/05 13:22:13;;;;;;;1.97;0.90;;;;;;;13.57;62.80;97578.53;5037512;28;42117;-90
2024/01/05 13:25:01;;;;;;;1.00;0.90;;;;;;;13.48;62.17;97584.72;5037793;28;42372;-88
2024/01/05 13:27:49;;;;;;;3.40;0.90;;;;;;;13.40;62.81;97577.47;5038377;28;40682;-90
2024/01/05 13:30:37;;;;;;;3.60;1.00;;;;;;;13.26;63.34;97559.31;5037194;28;41415;-85
2024/01/05 13:33:24;;;;;;;2.57;0.97;;;;;;;13.17;62.85;97563.69;5037416;28;42443;-89
2024/01/05 13:36:13;;;;;;;2.53;0.80;;;;;;;13.13;62.92;97570.22;5037277;28;42647;-84
2024/01/05 13:39:01;;;;;;;1.03;0.90;;;;;;;12.92;63.10;97556.28;5037093;28;39908;-86
2024/01/05 13:41:48;;;;;;;1.40;0.77;;;;;;;12.71;63.86;97532.56;5037614;28;41312;-90
2024/01/05 13:44:36;;;;;;;2.33;1.00;;;;;;;12.75;64.04;97549.03;5037570;28;42126;-89
2024/01/05 13:47:24;;;;;;;4.23;0.90;;;;;;;12.61;64.65;97536.19;5037103;28;41951;-86
2024/01/05 13:50:11;;;;;;;2.37;1.20;;;;;;;12.57;65.18;97533.81;5050721;28;39466;-86
2024/01/05 13:53:03;;;;;;;2.03;1.00;;;;;;;12.62;65.43;97548.47;5036976;28;40738;-86
2024/01/05 13:55:52;;;;;;;1.30;0.83;;;;;;;12.61;66.14;97546.81;5036579;28;42208;-90
2024/01/05 13:58:39;;;;;;;2.03;1.23;;;;;;;12.57;66.45;97541.78;5017411;28;41403;-86
2024/01/05 14:01:26;;;;;;;2.57;1.13;;;;;;;12.55;66.63;97533.13;5035880;28;39273;-85
2024/01/05 14:04:14;;;;;;;1.63;0.97;;;;;;;12.41;66.03;97519.41;5051057;28;40827;-88
2024/01/05 14:07:01;;;;;;;1.43;1.20;;;;;;;12.43;66.33;97533.41;5023008;28;42351;-88
2024/01/05 14:09:51;;;;;;;2.67;0.90;;;;;;;12.25;66.65;97514.66;5037423;28;42823;-87
2024/01/05 14:12:39;;;;;;;2.73;1.10;;;;;;;12.36;66.36;97548.22;5037071;28;39504;-87
2024/01/05 14:15:27;;;;;;;2.13;1.30;;;;;;;12.21;67.25;97534.50;5036679;28;41530;-88
2024/01/05 14:18:15;;;;;;;3.30;1.10;;;;;;;12.18;67.55;97532.97;5036626;28;42392;-88
2024/01/05 14:21:03;;;;;;;5.03;1.40;;;;;;;12.15;67.85;97529.75;5036705;28;41514;-90
2024/01/05 14:23:50;;;;;;;1.70;1.13;;;;;;;12.11;67.48;97533.66;5037206;28;39441;-88
2024/01/05 14:26:40;;;;;;;1.43;0.83;;;;;;;12.10;67.99;97529.34;5037195;28;40718;-90
2024/01/05 14:29:27;;;;;;;3.33;1.20;;;;;;;12.08;67.50;97531.28;5037355;28;42387;-90
2024/01/05 14:32:15;;;;;;;4.00;1.23;;;;;;;12.07;67.52;97542.88;5036343;28;42301;-86
2024/01/05 14:35:04;;;;;;;3.53;1.23;;;;;;;11.93;67.97;97532.63;5037489;28;40665;-89
2024/01/05 14:37:52;;;;;;;1.30;1.10;;;;;;;11.84;68.23;97537.78;5021243;28;41789;-91
2024/01/05 14:40:40;;;;;;;1.77;1.00;;;;;;;11.77;68.72;97552.56;5036617;28;42308;-88
2024/01/05 14:43:29;;;;;;;1.93;0.93;;;;;;;11.65;69.41;97548.28;5038187;28;41828;-87
2024/01/05 14:46:17;;;;;;;2.93;1.23;;;;;;;11.51;69.67;97551.31;5039855;28;40989;-88
2024/01/05 14:49:05;;;;;;;1.23;0.90;;;;;;;11.35;70.00;97545.69;5040260;28;41158;-89
2024/01/05 14:51:55;;;;;;;2.53;1.63;;;;;;;11.14;70.25;97535.94;5039832;28;41767;-91
2024/01/05 14:54:42;;;;;;;2.77;1.20;;;;;;;11.07;70.97;97536.59;5039937;28;41823;-85
2024/01/05 14:57:30;;;;;;;3.50;1.40;;;;;;;10.93;71.47;97534.28;5039181;28;40937;-87
2024/01/05 15:00:20;;;;;;;3.67;1.20;;;;;;;10.92;71.78;97543.19;5039878;28;41578;-87
2024/01/05 15:03:08;;;;;;;3.23;1.10;;;;;;;10.72;72.02;97540.44;5039868;28;42223;-88
2024/01/05 15:05:55;;;;;;;1.50;1.20;;;;;;;10.62;72.53;97538.69;5047578;28;41854;-86
2024/01/05 15:08:43;;;;;;;2.13;1.30;;;;;;;10.61;72.96;97544.97;5039185;28;39578;-88
2024/01/05 15:11:32;;;;;;;1.17;1.00;;;;;;;10.34;73.00;97527.75;5039866;28;42616;-87
2024/01/05 15:14:20;;;;;;;2.63;1.63;;;;;;;10.44;73.67;97559.59;5039157;28;42548;-87
2024/01/05 15:17:10;;;;;;;2.50;1.40;;;;;;;10.36;74.19;97562.88;5053322;28;42586;-86
2024/01/05 15:19:57;;;;;;;2.57;1.40;;;;;;;10.22;74.22;97547.28;5039540;28;38982;-87
2024/01/05 15:22:45;;;;;;;1.63;1.10;;;;;;;10.23;74.53;97561.34;5039483;28;41426;-90
2024/01/05 15:25:33;;;;;;;3.07;1.07;;;;;;;10.08;75.14;97558.13;5039289;28;42473;-89
2024/01/05 15:28:20;;;;;;;2.23;1.00;;;;;;;9.96;75.89;97548.53;5039629;28;41037;-88
2024/01/05 15:31:08;;;;;;;3.60;1.30;;;;;;;9.98;76.34;97562.47;5039434;28;40048;-88
2024/01/05 15:33:57;;;;;;;2.67;1.10;;;;;;;9.76;76.23;97542.22;5039483;28;41740;-87
2024/01/05 15:36:44;;;;;;;2.33;1.00;;;;;;;9.90;76.53;97565.72;5019581;28;43285;-90
2024/01/05 15:39:32;;;;;;;1.40;1.20;;;;;;;9.60;77.10;97533.81;5037370;28;41670;-89
2024/01/05 15:42:19;;;;;;;2.67;1.23;;;;;;;9.57;77.41;97537.53;5039653;28;39569;-90
2024/01/05 15:45:07;;;;;;;2.93;1.50;;;;;;;9.59;77.76;97551.47;5025926;28;41322;-88
2024/01/05 15:47:55;;;;;;;2.27;1.40;;;;;;;9.52;78.05;97549.44;5039505;28;41920;-85
2024/01/05 15:50:44;;;;;;;4.63;1.63;;;;;;;9.59;78.37;97569.97;5038805;28;42054;-85
2024/01/05 15:53:31;;;;;;;4.70;1.23;;;;;;;9.52;78.42;97568.75;5039329;28;39521;-85
2024/01/05 15:56:19;;;;;;;2.57;1.57;;;;;;;9.31;78.96;97551.97;5038766;28;41231;-85
2024/01/05 15:59:06;;;;;;;3.73;1.40;;;;;;;9.35;79.35;97558.69;5053210;28;42287;-90
2024/01/05 16:01:55;;;;;;;3.57;1.40;;;;;;;9.33;79.65;97571.16;5038994;28;41651;-90
2024/01/05 16:04:43;;;;;;;2.53;1.60;;;;;;;9.24;80.03;97556.88;5039072;28;38785;-88
2024/01/05 16:07:34;;;;;;;2.13;1.23;;;;;;;9.18;80.58;97562.63;5019120;28;43828;-89
2024/01/05 16:10:21;;;;;;;1.93;1.63;;;;;;;9.13;80.61;97563.97;5035094;28;42285;-90
2024/01/05 16:13:08;;;;;;;4.23;1.47;;;;;;;9.09;81.48;97563.34;5039216;28;42581;-89
2024/01/05 16:16:11;;;;;;;3.83;1.50;;;;;;;9.17;81.69;97591.81;5038252;28;40136;-89
2024/01/05 16:19:00;;;;;;;3.17;1.33;;;;;;;9.12;81.96;97588.69;5038813;28;41211;-89
2024/01/05 16:21:47;;;;;;;3.10;1.67;;;;;;;9.04;82.48;97576.06;5038355;28;42378;-90
2024/01/05 16:24:37;;;;;;;2.20;1.53;;;;;;;8.90;82.74;97563.91;5038550;28;41875;-90
2024/01/05 16:27:24;;;;;;;3.73;1.60;;;;;;;8.91;82.98;97570.88;5038355;28;39416;-89
2024/01/05 16:30:13;;;;;;;4.90;1.87;;;;;;;8.88;83.86;97571.13;5052296;28;41231;-89
2024/01/05 16:33:00;;;;;;;4.50;1.80;;;;;;;8.81;84.51;97561.97;5052482;28;42325;-89
2024/01/05 16:35:48;;;;;;;2.50;1.67;;;;;;;8.75;84.88;97565.09;5052367;28;41701;-90
